sensor_id;sensor_type;location;lat;lon;timestamp;P1;durP1;ratioP1;P2;durP2;ratioP2
53391;SDS011;41667;51.922;8.850;2023-01-10T00:00:29;12.48;;;8.50;;
53391;SDS011;41667;51.922;8.850;2023-01-10T00:02:58;11.55;;;7.13;;
53391;SDS011;41667;51.922;8.850;2023-01-10T00:05:24;16.02;;;8.07;;
53391;SDS011;41667;51.922;8.850;2023-01-10T00:07:49;13.45;;;7.07;;
53391;SDS011;41667;51.922;8.850;2023-01-10T00:10:14;15.30;;;7.93;;
53391;SDS011;41667;51.922;8.850;2023-01-10T00:12:39;11.70;;;6.68;;
53391;SDS011;41667;51.922;8.850;2023-01-10T00:15:23;12.25;;;5.93;;
53391;SDS011;41667;51.922;8.850;2023-01-10T00:17:49;11.20;;;5.82;;
53391;SDS011;41667;51.922;8.850;2023-01-10T00:20:14;7.53;;;5.20;;
53391;SDS011;41667;51.922;8.850;2023-01-10T00:22:39;10.63;;;4.82;;
53391;SDS011;41667;51.922;8.850;2023-01-10T00:25:04;9.82;;;3.60;;
53391;SDS011;41667;51.922;8.850;2023-01-10T00:27:30;7.70;;;4.28;;
53391;SDS011;41667;51.922;8.850;2023-01-10T00:29:55;9.18;;;3.08;;
53391;SDS011;41667;51.922;8.850;2023-01-10T00:32:22;4.85;;;3.53;;
53391;SDS011;41667;51.922;8.850;2023-01-10T00:34:47;7.05;;;3.17;;
53391;SDS011;41667;51.922;8.850;2023-01-10T00:37:12;5.40;;;2.87;;
53391;SDS011;41667;51.922;8.850;2023-01-10T00:39:38;4.93;;;2.95;;
53391;SDS011;41667;51.922;8.850;2023-01-10T00:42:03;7.37;;;3.03;;
53391;SDS011;41667;51.922;8.850;2023-01-10T00:44:47;5.88;;;2.95;;
53391;SDS011;41667;51.922;8.850;2023-01-10T00:47:12;7.38;;;3.10;;
53391;SDS011;41667;51.922;8.850;2023-01-10T00:49:38;2.72;;;2.40;;
53391;SDS011;41667;51.922;8.850;2023-01-10T00:52:03;5.13;;;2.75;;
53391;SDS011;41667;51.922;8.850;2023-01-10T00:54:29;3.83;;;2.78;;
53391;SDS011;41667;51.922;8.850;2023-01-10T00:56:54;7.13;;;2.75;;
53391;SDS011;41667;51.922;8.850;2023-01-10T00:59:19;6.00;;;2.80;;
53391;SDS011;41667;51.922;8.850;2023-01-10T01:01:44;7.10;;;3.07;;
53391;SDS011;41667;51.922;8.850;2023-01-10T01:04:09;9.68;;;3.15;;
53391;SDS011;41667;51.922;8.850;2023-01-10T01:06:34;5.57;;;3.00;;
53391;SDS011;41667;51.922;8.850;2023-01-10T01:09:00;5.47;;;3.03;;
53391;SDS011;41667;51.922;8.850;2023-01-10T01:11:25;6.30;;;3.23;;
53391;SDS011;41667;51.922;8.850;2023-01-10T01:13:50;7.25;;;3.22;;
53391;SDS011;41667;51.922;8.850;2023-01-10T01:16:15;6.45;;;3.80;;
53391;SDS011;41667;51.922;8.850;2023-01-10T01:18:41;7.07;;;3.40;;
53391;SDS011;41667;51.922;8.850;2023-01-10T01:21:06;9.50;;;2.90;;
53391;SDS011;41667;51.922;8.850;2023-01-10T01:23:32;6.03;;;3.85;;
53391;SDS011;41667;51.922;8.850;2023-01-10T01:25:58;6.03;;;3.17;;
53391;SDS011;41667;51.922;8.850;2023-01-10T01:28:23;6.25;;;3.42;;
53391;SDS011;41667;51.922;8.850;2023-01-10T01:30:49;10.43;;;3.85;;
53391;SDS011;41667;51.922;8.850;2023-01-10T01:33:14;10.35;;;3.72;;
53391;SDS011;41667;51.922;8.850;2023-01-10T01:35:43;6.75;;;4.40;;
53391;SDS011;41667;51.922;8.850;2023-01-10T01:38:08;11.55;;;4.55;;
53391;SDS011;41667;51.922;8.850;2023-01-10T01:40:33;9.43;;;3.77;;
53391;SDS011;41667;51.922;8.850;2023-01-10T01:42:58;12.07;;;4.32;;
53391;SDS011;41667;51.922;8.850;2023-01-10T01:47:53;11.75;;;4.07;;
53391;SDS011;41667;51.922;8.850;2023-01-10T01:50:33;6.90;;;3.78;;
53391;SDS011;41667;51.922;8.850;2023-01-10T01:53:01;8.23;;;3.60;;
53391;SDS011;41667;51.922;8.850;2023-01-10T01:55:27;9.80;;;3.58;;
53391;SDS011;41667;51.922;8.850;2023-01-10T01:57:54;7.93;;;4.40;;
53391;SDS011;41667;51.922;8.850;2023-01-10T02:00:21;12.07;;;5.30;;
53391;SDS011;41667;51.922;8.850;2023-01-10T02:02:49;11.43;;;5.50;;
53391;SDS011;41667;51.922;8.850;2023-01-10T02:05:15;15.93;;;4.97;;
53391;SDS011;41667;51.922;8.850;2023-01-10T02:07:41;6.53;;;4.78;;
53391;SDS011;41667;51.922;8.850;2023-01-10T02:12:40;11.40;;;4.53;;
53391;SDS011;41667;51.922;8.850;2023-01-10T02:15:06;10.10;;;5.72;;
53391;SDS011;41667;51.922;8.850;2023-01-10T02:17:31;10.70;;;5.35;;
53391;SDS011;41667;51.922;8.850;2023-01-10T02:19:57;9.02;;;5.40;;
53391;SDS011;41667;51.922;8.850;2023-01-10T02:25:02;19.52;;;6.75;;
53391;SDS011;41667;51.922;8.850;2023-01-10T02:32:59;19.88;;;7.05;;
53391;SDS011;41667;51.922;8.850;2023-01-10T02:37:59;16.65;;;7.72;;
53391;SDS011;41667;51.922;8.850;2023-01-10T02:43:08;17.35;;;7.18;;
53391;SDS011;41667;51.922;8.850;2023-01-10T02:48:08;17.20;;;6.55;;
53391;SDS011;41667;51.922;8.850;2023-01-10T02:50:44;13.20;;;7.30;;
53391;SDS011;41667;51.922;8.850;2023-01-10T02:53:24;17.63;;;7.50;;
53391;SDS011;41667;51.922;8.850;2023-01-10T02:56:08;17.40;;;7.10;;
53391;SDS011;41667;51.922;8.850;2023-01-10T02:58:47;14.02;;;6.50;;
53391;SDS011;41667;51.922;8.850;2023-01-10T03:01:21;18.92;;;6.68;;
53391;SDS011;41667;51.922;8.850;2023-01-10T03:04:33;14.15;;;7.07;;
53391;SDS011;41667;51.922;8.850;2023-01-10T03:06:43;13.60;;;6.20;;
53391;SDS011;41667;51.922;8.850;2023-01-10T03:11:47;19.10;;;6.47;;
53391;SDS011;41667;51.922;8.850;2023-01-10T03:16:37;9.45;;;4.68;;
53391;SDS011;41667;51.922;8.850;2023-01-10T03:19:09;10.27;;;5.35;;
53391;SDS011;41667;51.922;8.850;2023-01-10T03:21:35;12.75;;;5.57;;
53391;SDS011;41667;51.922;8.850;2023-01-10T03:24:03;11.98;;;4.75;;
53391;SDS011;41667;51.922;8.850;2023-01-10T03:26:32;13.85;;;4.88;;
53391;SDS011;41667;51.922;8.850;2023-01-10T03:29:01;19.15;;;5.78;;
53391;SDS011;41667;51.922;8.850;2023-01-10T03:31:30;16.00;;;5.25;;
53391;SDS011;41667;51.922;8.850;2023-01-10T03:33:56;12.73;;;4.95;;
53391;SDS011;41667;51.922;8.850;2023-01-10T03:36:29;15.77;;;5.30;;
53391;SDS011;41667;51.922;8.850;2023-01-10T03:38:56;10.25;;;4.40;;
53391;SDS011;41667;51.922;8.850;2023-01-10T03:44:39;12.18;;;5.55;;
53391;SDS011;41667;51.922;8.850;2023-01-10T03:47:12;10.05;;;4.88;;
53391;SDS011;41667;51.922;8.850;2023-01-10T03:49:40;8.88;;;3.67;;
53391;SDS011;41667;51.922;8.850;2023-01-10T03:52:06;11.88;;;4.13;;
53391;SDS011;41667;51.922;8.850;2023-01-10T03:54:32;12.52;;;5.15;;
53391;SDS011;41667;51.922;8.850;2023-01-10T03:56:57;11.80;;;5.28;;
53391;SDS011;41667;51.922;8.850;2023-01-10T03:59:23;16.40;;;4.72;;
53391;SDS011;41667;51.922;8.850;2023-01-10T04:01:49;12.38;;;5.05;;
53391;SDS011;41667;51.922;8.850;2023-01-10T04:04:14;10.73;;;4.57;;
53391;SDS011;41667;51.922;8.850;2023-01-10T04:06:39;16.63;;;4.47;;
53391;SDS011;41667;51.922;8.850;2023-01-10T04:09:05;9.63;;;4.93;;
53391;SDS011;41667;51.922;8.850;2023-01-10T04:11:30;17.00;;;5.43;;
53391;SDS011;41667;51.922;8.850;2023-01-10T04:13:56;15.13;;;5.30;;
53391;SDS011;41667;51.922;8.850;2023-01-10T04:16:21;6.28;;;4.18;;
53391;SDS011;41667;51.922;8.850;2023-01-10T04:18:46;16.27;;;5.20;;
53391;SDS011;41667;51.922;8.850;2023-01-10T04:21:11;17.25;;;6.40;;
53391;SDS011;41667;51.922;8.850;2023-01-10T04:23:36;14.82;;;6.55;;
53391;SDS011;41667;51.922;8.850;2023-01-10T04:26:01;9.75;;;5.28;;
53391;SDS011;41667;51.922;8.850;2023-01-10T04:28:26;16.35;;;5.70;;
53391;SDS011;41667;51.922;8.850;2023-01-10T04:30:51;15.85;;;6.90;;
53391;SDS011;41667;51.922;8.850;2023-01-10T04:33:17;13.82;;;5.75;;
53391;SDS011;41667;51.922;8.850;2023-01-10T04:35:48;31.80;;;7.30;;
53391;SDS011;41667;51.922;8.850;2023-01-10T04:38:14;11.10;;;5.57;;
53391;SDS011;41667;51.922;8.850;2023-01-10T04:40:40;11.57;;;5.65;;
53391;SDS011;41667;51.922;8.850;2023-01-10T04:43:05;13.60;;;5.63;;
53391;SDS011;41667;51.922;8.850;2023-01-10T04:45:30;9.43;;;4.47;;
53391;SDS011;41667;51.922;8.850;2023-01-10T04:47:55;10.55;;;5.68;;
53391;SDS011;41667;51.922;8.850;2023-01-10T04:50:21;13.30;;;5.17;;
53391;SDS011;41667;51.922;8.850;2023-01-10T04:52:46;9.85;;;4.43;;
53391;SDS011;41667;51.922;8.850;2023-01-10T04:55:11;8.70;;;4.18;;
53391;SDS011;41667;51.922;8.850;2023-01-10T04:57:37;8.13;;;4.07;;
53391;SDS011;41667;51.922;8.850;2023-01-10T05:00:02;12.77;;;4.28;;
53391;SDS011;41667;51.922;8.850;2023-01-10T05:02:27;7.35;;;4.22;;
53391;SDS011;41667;51.922;8.850;2023-01-10T05:04:52;9.65;;;4.68;;
53391;SDS011;41667;51.922;8.850;2023-01-10T05:07:17;13.43;;;5.05;;
53391;SDS011;41667;51.922;8.850;2023-01-10T05:09:42;16.97;;;6.97;;
53391;SDS011;41667;51.922;8.850;2023-01-10T05:12:08;13.70;;;7.85;;
53391;SDS011;41667;51.922;8.850;2023-01-10T05:14:33;17.13;;;9.03;;
53391;SDS011;41667;51.922;8.850;2023-01-10T05:16:58;18.73;;;8.73;;
53391;SDS011;41667;51.922;8.850;2023-01-10T05:19:23;18.30;;;10.17;;
53391;SDS011;41667;51.922;8.850;2023-01-10T05:21:48;15.90;;;9.97;;
53391;SDS011;41667;51.922;8.850;2023-01-10T05:24:16;15.68;;;9.65;;
53391;SDS011;41667;51.922;8.850;2023-01-10T05:26:41;21.02;;;9.80;;
53391;SDS011;41667;51.922;8.850;2023-01-10T05:29:08;24.63;;;11.30;;
53391;SDS011;41667;51.922;8.850;2023-01-10T05:31:33;22.05;;;8.65;;
53391;SDS011;41667;51.922;8.850;2023-01-10T05:33:58;15.15;;;9.38;;
53391;SDS011;41667;51.922;8.850;2023-01-10T05:36:23;15.82;;;8.50;;
53391;SDS011;41667;51.922;8.850;2023-01-10T05:38:48;12.85;;;8.40;;
53391;SDS011;41667;51.922;8.850;2023-01-10T05:41:13;15.50;;;7.88;;
53391;SDS011;41667;51.922;8.850;2023-01-10T05:43:38;15.07;;;7.80;;
53391;SDS011;41667;51.922;8.850;2023-01-10T05:46:04;21.95;;;7.38;;
53391;SDS011;41667;51.922;8.850;2023-01-10T05:48:29;22.55;;;7.80;;
53391;SDS011;41667;51.922;8.850;2023-01-10T05:50:54;17.50;;;9.13;;
53391;SDS011;41667;51.922;8.850;2023-01-10T05:53:19;15.90;;;7.45;;
53391;SDS011;41667;51.922;8.850;2023-01-10T05:55:51;20.15;;;7.75;;
53391;SDS011;41667;51.922;8.850;2023-01-10T06:00:42;15.43;;;7.15;;
53391;SDS011;41667;51.922;8.850;2023-01-10T06:03:07;18.48;;;8.07;;
53391;SDS011;41667;51.922;8.850;2023-01-10T06:05:32;16.73;;;7.15;;
53391;SDS011;41667;51.922;8.850;2023-01-10T06:07:57;29.08;;;7.45;;
53391;SDS011;41667;51.922;8.850;2023-01-10T06:10:23;14.88;;;7.10;;
53391;SDS011;41667;51.922;8.850;2023-01-10T06:12:48;13.93;;;7.20;;
53391;SDS011;41667;51.922;8.850;2023-01-10T06:15:13;12.50;;;7.60;;
53391;SDS011;41667;51.922;8.850;2023-01-10T06:17:39;13.32;;;7.15;;
53391;SDS011;41667;51.922;8.850;2023-01-10T06:20:04;16.93;;;7.00;;
53391;SDS011;41667;51.922;8.850;2023-01-10T06:22:29;19.48;;;7.63;;
53391;SDS011;41667;51.922;8.850;2023-01-10T06:24:54;15.57;;;7.78;;
53391;SDS011;41667;51.922;8.850;2023-01-10T06:27:20;11.27;;;5.43;;
53391;SDS011;41667;51.922;8.850;2023-01-10T06:29:45;18.00;;;7.47;;
53391;SDS011;41667;51.922;8.850;2023-01-10T06:32:10;17.10;;;6.97;;
53391;SDS011;41667;51.922;8.850;2023-01-10T06:34:35;17.90;;;7.80;;
53391;SDS011;41667;51.922;8.850;2023-01-10T06:37:00;17.65;;;7.22;;
53391;SDS011;41667;51.922;8.850;2023-01-10T06:39:25;10.93;;;6.30;;
53391;SDS011;41667;51.922;8.850;2023-01-10T06:41:50;16.65;;;6.47;;
53391;SDS011;41667;51.922;8.850;2023-01-10T06:44:16;13.23;;;6.43;;
53391;SDS011;41667;51.922;8.850;2023-01-10T06:46:41;14.73;;;7.43;;
53391;SDS011;41667;51.922;8.850;2023-01-10T06:49:06;13.03;;;6.07;;
53391;SDS011;41667;51.922;8.850;2023-01-10T06:51:31;14.57;;;6.75;;
53391;SDS011;41667;51.922;8.850;2023-01-10T06:53:56;18.02;;;6.95;;
53391;SDS011;41667;51.922;8.850;2023-01-10T06:56:21;23.50;;;6.78;;
53391;SDS011;41667;51.922;8.850;2023-01-10T06:58:47;15.07;;;6.30;;
53391;SDS011;41667;51.922;8.850;2023-01-10T07:01:13;19.33;;;8.15;;
53391;SDS011;41667;51.922;8.850;2023-01-10T07:03:38;15.45;;;4.82;;
53391;SDS011;41667;51.922;8.850;2023-01-10T07:06:04;14.35;;;6.90;;
53391;SDS011;41667;51.922;8.850;2023-01-10T07:08:33;13.63;;;6.57;;
53391;SDS011;41667;51.922;8.850;2023-01-10T07:10:59;14.20;;;7.72;;
53391;SDS011;41667;51.922;8.850;2023-01-10T07:13:24;11.18;;;6.45;;
53391;SDS011;41667;51.922;8.850;2023-01-10T07:15:49;14.95;;;7.05;;
53391;SDS011;41667;51.922;8.850;2023-01-10T07:18:14;14.57;;;7.70;;
53391;SDS011;41667;51.922;8.850;2023-01-10T07:20:40;22.60;;;7.82;;
53391;SDS011;41667;51.922;8.850;2023-01-10T07:23:05;14.82;;;6.60;;
53391;SDS011;41667;51.922;8.850;2023-01-10T07:25:30;13.53;;;7.20;;
53391;SDS011;41667;51.922;8.850;2023-01-10T07:27:56;13.73;;;5.27;;
53391;SDS011;41667;51.922;8.850;2023-01-10T07:30:21;12.45;;;6.72;;
53391;SDS011;41667;51.922;8.850;2023-01-10T07:32:54;20.15;;;6.63;;
53391;SDS011;41667;51.922;8.850;2023-01-10T07:37:44;14.90;;;5.30;;
53391;SDS011;41667;51.922;8.850;2023-01-10T07:40:10;14.40;;;6.57;;
53391;SDS011;41667;51.922;8.850;2023-01-10T07:42:35;7.40;;;5.97;;
53391;SDS011;41667;51.922;8.850;2023-01-10T07:45:01;16.38;;;7.10;;
53391;SDS011;41667;51.922;8.850;2023-01-10T07:47:26;20.40;;;8.05;;
53391;SDS011;41667;51.922;8.850;2023-01-10T07:49:52;13.65;;;6.13;;
53391;SDS011;41667;51.922;8.850;2023-01-10T07:52:17;10.85;;;6.05;;
53391;SDS011;41667;51.922;8.850;2023-01-10T07:54:42;6.55;;;5.47;;
53391;SDS011;41667;51.922;8.850;2023-01-10T07:57:07;11.98;;;6.20;;
53391;SDS011;41667;51.922;8.850;2023-01-10T07:59:32;8.48;;;5.40;;
53391;SDS011;41667;51.922;8.850;2023-01-10T08:01:58;14.37;;;7.20;;
53391;SDS011;41667;51.922;8.850;2023-01-10T08:04:23;12.77;;;7.20;;
53391;SDS011;41667;51.922;8.850;2023-01-10T08:06:48;17.13;;;6.17;;
53391;SDS011;41667;51.922;8.850;2023-01-10T08:09:13;19.27;;;7.13;;
53391;SDS011;41667;51.922;8.850;2023-01-10T08:11:39;11.30;;;5.23;;
53391;SDS011;41667;51.922;8.850;2023-01-10T08:14:04;14.57;;;7.80;;
53391;SDS011;41667;51.922;8.850;2023-01-10T08:16:29;16.58;;;8.10;;
53391;SDS011;41667;51.922;8.850;2023-01-10T08:18:54;13.30;;;6.75;;
53391;SDS011;41667;51.922;8.850;2023-01-10T08:21:20;14.05;;;6.38;;
53391;SDS011;41667;51.922;8.850;2023-01-10T08:23:45;19.02;;;6.55;;
53391;SDS011;41667;51.922;8.850;2023-01-10T08:26:10;13.30;;;6.43;;
53391;SDS011;41667;51.922;8.850;2023-01-10T08:28:35;18.42;;;7.22;;
53391;SDS011;41667;51.922;8.850;2023-01-10T08:31:04;16.52;;;6.68;;
53391;SDS011;41667;51.922;8.850;2023-01-10T08:33:29;11.95;;;5.85;;
53391;SDS011;41667;51.922;8.850;2023-01-10T08:35:54;12.60;;;6.47;;
53391;SDS011;41667;51.922;8.850;2023-01-10T08:38:19;17.30;;;7.35;;
53391;SDS011;41667;51.922;8.850;2023-01-10T08:40:45;18.17;;;6.05;;
53391;SDS011;41667;51.922;8.850;2023-01-10T08:43:10;14.23;;;6.68;;
53391;SDS011;41667;51.922;8.850;2023-01-10T08:45:36;8.15;;;4.78;;
53391;SDS011;41667;51.922;8.850;2023-01-10T08:48:02;15.05;;;6.15;;
53391;SDS011;41667;51.922;8.850;2023-01-10T08:50:28;19.08;;;6.18;;
53391;SDS011;41667;51.922;8.850;2023-01-10T08:52:56;15.68;;;6.07;;
53391;SDS011;41667;51.922;8.850;2023-01-10T08:55:21;23.65;;;6.47;;
53391;SDS011;41667;51.922;8.850;2023-01-10T08:57:46;16.77;;;5.75;;
53391;SDS011;41667;51.922;8.850;2023-01-10T09:00:11;22.17;;;5.57;;
53391;SDS011;41667;51.922;8.850;2023-01-10T09:02:38;12.73;;;5.07;;
53391;SDS011;41667;51.922;8.850;2023-01-10T09:05:03;13.60;;;5.95;;
53391;SDS011;41667;51.922;8.850;2023-01-10T09:07:28;13.90;;;5.20;;
53391;SDS011;41667;51.922;8.850;2023-01-10T09:09:54;12.18;;;5.82;;
53391;SDS011;41667;51.922;8.850;2023-01-10T09:12:19;14.50;;;5.65;;
53391;SDS011;41667;51.922;8.850;2023-01-10T09:15:03;18.08;;;3.65;;
53391;SDS011;41667;51.922;8.850;2023-01-10T09:17:28;26.15;;;6.35;;
53391;SDS011;41667;51.922;8.850;2023-01-10T09:19:53;16.27;;;6.90;;
53391;SDS011;41667;51.922;8.850;2023-01-10T09:22:20;17.10;;;6.18;;
53391;SDS011;41667;51.922;8.850;2023-01-10T09:24:45;14.50;;;6.43;;
53391;SDS011;41667;51.922;8.850;2023-01-10T09:27:10;13.15;;;5.50;;
53391;SDS011;41667;51.922;8.850;2023-01-10T09:29:35;22.95;;;6.80;;
53391;SDS011;41667;51.922;8.850;2023-01-10T09:32:00;12.55;;;6.72;;
53391;SDS011;41667;51.922;8.850;2023-01-10T09:34:26;15.50;;;6.78;;
53391;SDS011;41667;51.922;8.850;2023-01-10T09:36:52;16.23;;;6.20;;
53391;SDS011;41667;51.922;8.850;2023-01-10T09:39:17;14.52;;;6.50;;
53391;SDS011;41667;51.922;8.850;2023-01-10T09:44:35;13.95;;;5.80;;
53391;SDS011;41667;51.922;8.850;2023-01-10T09:47:12;25.00;;;6.80;;
53391;SDS011;41667;51.922;8.850;2023-01-10T09:49:44;15.15;;;5.88;;
53391;SDS011;41667;51.922;8.850;2023-01-10T09:52:16;18.98;;;7.28;;
53391;SDS011;41667;51.922;8.850;2023-01-10T09:54:44;21.08;;;6.75;;
53391;SDS011;41667;51.922;8.850;2023-01-10T09:57:12;33.45;;;8.38;;
53391;SDS011;41667;51.922;8.850;2023-01-10T09:59:39;17.38;;;7.07;;
53391;SDS011;41667;51.922;8.850;2023-01-10T10:07:33;17.30;;;7.13;;
53391;SDS011;41667;51.922;8.850;2023-01-10T10:09:58;22.80;;;5.97;;
53391;SDS011;41667;51.922;8.850;2023-01-10T10:12:29;10.57;;;5.80;;
53391;SDS011;41667;51.922;8.850;2023-01-10T10:20:22;22.40;;;6.82;;
53391;SDS011;41667;51.922;8.850;2023-01-10T10:22:52;18.23;;;7.38;;
53391;SDS011;41667;51.922;8.850;2023-01-10T10:25:38;18.63;;;6.85;;
53391;SDS011;41667;51.922;8.850;2023-01-10T10:30:55;18.42;;;6.53;;
53391;SDS011;41667;51.922;8.850;2023-01-10T10:33:30;29.90;;;7.50;;
53391;SDS011;41667;51.922;8.850;2023-01-10T10:35:59;16.35;;;5.97;;
53391;SDS011;41667;51.922;8.850;2023-01-10T10:38:27;22.23;;;6.07;;
53391;SDS011;41667;51.922;8.850;2023-01-10T10:40:56;22.92;;;6.75;;
53391;SDS011;41667;51.922;8.850;2023-01-10T10:43:22;20.42;;;7.50;;
53391;SDS011;41667;51.922;8.850;2023-01-10T10:45:51;27.63;;;7.43;;
53391;SDS011;41667;51.922;8.850;2023-01-10T10:50:56;15.13;;;6.43;;
53391;SDS011;41667;51.922;8.850;2023-01-10T10:53:22;24.52;;;6.95;;
53391;SDS011;41667;51.922;8.850;2023-01-10T10:55:47;15.77;;;5.60;;
53391;SDS011;41667;51.922;8.850;2023-01-10T10:58:13;21.35;;;7.18;;
53391;SDS011;41667;51.922;8.850;2023-01-10T11:00:38;19.30;;;7.28;;
53391;SDS011;41667;51.922;8.850;2023-01-10T11:03:06;21.02;;;5.97;;
53391;SDS011;41667;51.922;8.850;2023-01-10T11:05:37;14.88;;;6.50;;
53391;SDS011;41667;51.922;8.850;2023-01-10T11:08:04;16.50;;;5.30;;
53391;SDS011;41667;51.922;8.850;2023-01-10T11:10:43;16.27;;;5.57;;
53391;SDS011;41667;51.922;8.850;2023-01-10T11:13:18;21.95;;;7.28;;
53391;SDS011;41667;51.922;8.850;2023-01-10T11:15:45;14.38;;;5.68;;
53391;SDS011;41667;51.922;8.850;2023-01-10T11:20:36;20.35;;;6.05;;
53391;SDS011;41667;51.922;8.850;2023-01-10T11:23:01;19.38;;;7.00;;
53391;SDS011;41667;51.922;8.850;2023-01-10T11:25:27;21.55;;;7.70;;
53391;SDS011;41667;51.922;8.850;2023-01-10T11:27:56;16.92;;;5.53;;
53391;SDS011;41667;51.922;8.850;2023-01-10T11:30:23;13.70;;;6.70;;
53391;SDS011;41667;51.922;8.850;2023-01-10T11:32:50;17.42;;;6.55;;
53391;SDS011;41667;51.922;8.850;2023-01-10T11:35:19;16.73;;;5.90;;
53391;SDS011;41667;51.922;8.850;2023-01-10T11:37:56;15.93;;;5.80;;
53391;SDS011;41667;51.922;8.850;2023-01-10T11:40:23;15.13;;;5.78;;
53391;SDS011;41667;51.922;8.850;2023-01-10T11:42:50;22.70;;;6.15;;
53391;SDS011;41667;51.922;8.850;2023-01-10T11:47:41;18.25;;;6.25;;
53391;SDS011;41667;51.922;8.850;2023-01-10T11:50:07;17.55;;;6.30;;
53391;SDS011;41667;51.922;8.850;2023-01-10T11:52:33;12.27;;;6.25;;
53391;SDS011;41667;51.922;8.850;2023-01-10T11:54:58;10.17;;;5.57;;
53391;SDS011;41667;51.922;8.850;2023-01-10T11:57:27;11.95;;;5.22;;
53391;SDS011;41667;51.922;8.850;2023-01-10T12:02:35;18.45;;;6.13;;
53391;SDS011;41667;51.922;8.850;2023-01-10T12:05:02;9.57;;;4.45;;
53391;SDS011;41667;51.922;8.850;2023-01-10T12:07:28;17.63;;;6.40;;
53391;SDS011;41667;51.922;8.850;2023-01-10T12:09:55;11.33;;;4.37;;
53391;SDS011;41667;51.922;8.850;2023-01-10T12:12:21;19.92;;;5.03;;
53391;SDS011;41667;51.922;8.850;2023-01-10T12:14:46;9.73;;;3.90;;
53391;SDS011;41667;51.922;8.850;2023-01-10T12:17:17;33.58;;;6.88;;
53391;SDS011;41667;51.922;8.850;2023-01-10T12:19:43;12.00;;;3.92;;
53391;SDS011;41667;51.922;8.850;2023-01-10T12:22:09;10.73;;;4.15;;
53391;SDS011;41667;51.922;8.850;2023-01-10T12:24:36;18.27;;;4.53;;
53391;SDS011;41667;51.922;8.850;2023-01-10T12:27:04;13.73;;;3.78;;
53391;SDS011;41667;51.922;8.850;2023-01-10T12:29:34;17.35;;;4.57;;
53391;SDS011;41667;51.922;8.850;2023-01-10T12:32:01;13.13;;;3.72;;
53391;SDS011;41667;51.922;8.850;2023-01-10T12:34:34;16.38;;;4.57;;
53391;SDS011;41667;51.922;8.850;2023-01-10T12:37:07;16.25;;;5.55;;
53391;SDS011;41667;51.922;8.850;2023-01-10T12:39:35;20.55;;;5.07;;
53391;SDS011;41667;51.922;8.850;2023-01-10T12:42:03;10.95;;;4.72;;
53391;SDS011;41667;51.922;8.850;2023-01-10T12:45:02;21.85;;;4.80;;
53391;SDS011;41667;51.922;8.850;2023-01-10T12:47:51;16.50;;;5.18;;
53391;SDS011;41667;51.922;8.850;2023-01-10T12:50:28;12.55;;;4.32;;
53391;SDS011;41667;51.922;8.850;2023-01-10T12:52:57;17.23;;;5.80;;
53391;SDS011;41667;51.922;8.850;2023-01-10T12:55:25;12.00;;;4.45;;
53391;SDS011;41667;51.922;8.850;2023-01-10T12:57:52;13.73;;;4.90;;
53391;SDS011;41667;51.922;8.850;2023-01-10T13:00:20;15.75;;;5.05;;
53391;SDS011;41667;51.922;8.850;2023-01-10T13:02:48;14.38;;;4.45;;
53391;SDS011;41667;51.922;8.850;2023-01-10T13:05:17;15.82;;;5.20;;
53391;SDS011;41667;51.922;8.850;2023-01-10T13:07:43;10.52;;;4.75;;
53391;SDS011;41667;51.922;8.850;2023-01-10T13:10:08;11.38;;;4.15;;
53391;SDS011;41667;51.922;8.850;2023-01-10T13:12:39;12.82;;;4.75;;
53391;SDS011;41667;51.922;8.850;2023-01-10T13:15:10;15.02;;;4.38;;
53391;SDS011;41667;51.922;8.850;2023-01-10T13:17:41;13.23;;;4.35;;
53391;SDS011;41667;51.922;8.850;2023-01-10T13:22:48;15.77;;;5.10;;
53391;SDS011;41667;51.922;8.850;2023-01-10T13:25:28;17.25;;;4.72;;
53391;SDS011;41667;51.922;8.850;2023-01-10T13:27:57;11.85;;;4.25;;
53391;SDS011;41667;51.922;8.850;2023-01-10T13:30:24;11.93;;;4.43;;
53391;SDS011;41667;51.922;8.850;2023-01-10T13:32:58;14.25;;;5.10;;
53391;SDS011;41667;51.922;8.850;2023-01-10T13:35:24;19.88;;;4.30;;
53391;SDS011;41667;51.922;8.850;2023-01-10T13:37:52;18.77;;;4.00;;
53391;SDS011;41667;51.922;8.850;2023-01-10T13:40:25;4.95;;;2.80;;
53391;SDS011;41667;51.922;8.850;2023-01-10T13:45:45;15.07;;;4.47;;
53391;SDS011;41667;51.922;8.850;2023-01-10T13:48:23;11.55;;;2.60;;
53391;SDS011;41667;51.922;8.850;2023-01-10T13:50:50;13.88;;;3.30;;
53391;SDS011;41667;51.922;8.850;2023-01-10T14:00:49;10.60;;;3.28;;
53391;SDS011;41667;51.922;8.850;2023-01-10T14:03:43;9.95;;;3.28;;
53391;SDS011;41667;51.922;8.850;2023-01-10T14:08:53;10.57;;;2.90;;
53391;SDS011;41667;51.922;8.850;2023-01-10T14:11:19;15.73;;;3.33;;
53391;SDS011;41667;51.922;8.850;2023-01-10T14:13:46;10.20;;;2.90;;
53391;SDS011;41667;51.922;8.850;2023-01-10T14:16:35;12.13;;;3.20;;
53391;SDS011;41667;51.922;8.850;2023-01-10T14:18:58;15.38;;;3.20;;
53391;SDS011;41667;51.922;8.850;2023-01-10T14:21:24;6.63;;;2.05;;
53391;SDS011;41667;51.922;8.850;2023-01-10T14:23:51;12.68;;;3.20;;
53391;SDS011;41667;51.922;8.850;2023-01-10T14:26:38;6.97;;;2.45;;
53391;SDS011;41667;51.922;8.850;2023-01-10T14:29:05;11.07;;;2.40;;
53391;SDS011;41667;51.922;8.850;2023-01-10T14:31:31;4.65;;;2.00;;
53391;SDS011;41667;51.922;8.850;2023-01-10T14:33:56;11.60;;;1.83;;
53391;SDS011;41667;51.922;8.850;2023-01-10T14:36:23;10.50;;;1.73;;
53391;SDS011;41667;51.922;8.850;2023-01-10T14:38:51;8.55;;;1.88;;
53391;SDS011;41667;51.922;8.850;2023-01-10T14:43:53;13.05;;;2.42;;
53391;SDS011;41667;51.922;8.850;2023-01-10T14:46:21;7.40;;;1.85;;
53391;SDS011;41667;51.922;8.850;2023-01-10T14:48:49;10.48;;;2.45;;
53391;SDS011;41667;51.922;8.850;2023-01-10T14:51:27;7.40;;;2.10;;
53391;SDS011;41667;51.922;8.850;2023-01-10T14:54:03;4.10;;;1.58;;
53391;SDS011;41667;51.922;8.850;2023-01-10T14:56:41;13.05;;;2.75;;
53391;SDS011;41667;51.922;8.850;2023-01-10T15:01:52;4.45;;;1.80;;
53391;SDS011;41667;51.922;8.850;2023-01-10T15:04:20;8.48;;;2.00;;
53391;SDS011;41667;51.922;8.850;2023-01-10T15:06:49;8.90;;;2.13;;
53391;SDS011;41667;51.922;8.850;2023-01-10T15:09:14;10.05;;;2.15;;
53391;SDS011;41667;51.922;8.850;2023-01-10T15:11:40;8.00;;;1.77;;
53391;SDS011;41667;51.922;8.850;2023-01-10T15:14:05;7.25;;;2.17;;
53391;SDS011;41667;51.922;8.850;2023-01-10T15:16:32;5.50;;;1.55;;
53391;SDS011;41667;51.922;8.850;2023-01-10T15:18:57;9.98;;;2.20;;
53391;SDS011;41667;51.922;8.850;2023-01-10T15:21:23;8.43;;;2.05;;
53391;SDS011;41667;51.922;8.850;2023-01-10T15:23:49;10.15;;;2.25;;
53391;SDS011;41667;51.922;8.850;2023-01-10T15:26:16;10.65;;;2.53;;
53391;SDS011;41667;51.922;8.850;2023-01-10T15:28:42;8.80;;;2.20;;
53391;SDS011;41667;51.922;8.850;2023-01-10T15:31:07;6.63;;;1.85;;
53391;SDS011;41667;51.922;8.850;2023-01-10T15:33:35;5.25;;;2.40;;
53391;SDS011;41667;51.922;8.850;2023-01-10T15:36:04;4.60;;;2.00;;
53391;SDS011;41667;51.922;8.850;2023-01-10T15:38:30;9.82;;;2.20;;
53391;SDS011;41667;51.922;8.850;2023-01-10T15:40:59;12.70;;;2.30;;
53391;SDS011;41667;51.922;8.850;2023-01-10T15:43:28;14.30;;;2.20;;
53391;SDS011;41667;51.922;8.850;2023-01-10T15:45:55;5.43;;;1.98;;
53391;SDS011;41667;51.922;8.850;2023-01-10T15:50:56;8.02;;;2.10;;
53391;SDS011;41667;51.922;8.850;2023-01-10T15:56:08;12.43;;;2.72;;
53391;SDS011;41667;51.922;8.850;2023-01-10T15:58:34;7.32;;;1.90;;
53391;SDS011;41667;51.922;8.850;2023-01-10T16:01:00;9.48;;;2.05;;
53391;SDS011;41667;51.922;8.850;2023-01-10T16:03:38;5.32;;;2.20;;
53391;SDS011;41667;51.922;8.850;2023-01-10T16:06:13;6.93;;;1.70;;